Time;durP1;ratioP1;P1;durP2;ratioP2;P2;SDS_P1;SDS_P2;PMS_P1;PMS_P2;Temp;Humidity;BMP_temperature;BMP_pressure;BME280_temperature;BME280_humidity;BME280_pressure;Samples;Min_cycle;Max_cycle;Signal;HPM_P1;HPM_P2
2022/11/27 00:02:04;;;;;;;21.88;6.45;;;6.10;99.90;;;;;;5012250;28;20033;-65
2022/11/27 00:04:29;;;;;;;15.82;5.57;;;6.20;99.90;;;;;;5009087;28;20072;-64
2022/11/27 00:06:55;;;;;;;21.67;6.65;;;6.20;99.90;;;;;;5011382;28;20034;-65
2022/11/27 00:09:21;;;;;;;16.65;6.30;;;6.20;99.90;;;;;;5010507;28;20042;-64
2022/11/27 00:11:46;;;;;;;19.83;5.95;;;6.20;99.90;;;;;;5010391;28;20038;-64
2022/11/27 00:14:14;;;;;;;21.20;6.15;;;6.10;99.90;;;;;;5006497;28;20104;-64
2022/11/27 00:16:40;;;;;;;14.40;5.78;;;6.10;99.90;;;;;;5008841;28;20113;-64
2022/11/27 00:19:06;;;;;;;16.20;5.53;;;6.10;99.90;;;;;;5011652;28;20050;-65
2022/11/27 00:21:33;;;;;;;16.13;5.65;;;6.10;99.90;;;;;;4998660;28;20153;-64
2022/11/27 00:24:01;;;;;;;19.80;6.18;;;6.10;99.90;;;;;;4989857;28;20129;-64
2022/11/27 00:26:27;;;;;;;15.98;5.75;;;6.10;99.90;;;;;;4992357;28;20172;-63
2022/11/27 00:28:53;;;;;;;20.02;5.38;;;6.10;99.90;;;;;;5010764;28;20049;-64
2022/11/27 00:31:25;;;;;;;16.17;6.00;;;6.10;99.90;;;;;;5011091;28;20034;-64
2022/11/27 00:33:53;;;;;;;19.88;5.97;;;6.00;99.90;;;;;;5011168;28;20445;-64
2022/11/27 00:36:18;;;;;;;20.60;6.05;;;6.00;99.90;;;;;;5009874;28;20697;-65
2022/11/27 00:38:44;;;;;;;15.88;5.45;;;6.00;99.90;;;;;;5010431;28;20033;-64
2022/11/27 00:41:17;;;;;;;17.67;5.50;;;6.10;99.90;;;;;;5009205;28;20040;-64
2022/11/27 00:43:43;;;;;;;12.55;5.78;;;6.10;99.90;;;;;;5021583;28;20054;-64
2022/11/27 00:46:09;;;;;;;16.63;5.57;;;6.00;99.90;;;;;;5008197;28;20041;-64
2022/11/27 00:48:35;;;;;;;16.42;5.18;;;5.90;99.90;;;;;;5008494;28;20120;-64
2022/11/27 00:51:03;;;;;;;17.65;5.82;;;5.90;99.90;;;;;;5010498;28;20045;-63
2022/11/27 00:53:29;;;;;;;15.48;5.20;;;5.90;99.90;;;;;;5009299;28;20108;-64
2022/11/27 00:55:55;;;;;;;13.45;5.10;;;5.90;99.90;;;;;;5004286;28;20092;-64
2022/11/27 00:58:22;;;;;;;17.58;6.30;;;5.70;99.90;;;;;;5009751;28;20045;-63
2022/11/27 01:00:54;;;;;;;25.33;5.40;;;5.70;99.90;;;;;;5009252;28;21830;-64
2022/11/27 01:03:20;;;;;;;14.07;5.70;;;5.80;99.90;;;;;;5013722;28;20049;-63
2022/11/27 01:05:45;;;;;;;19.42;5.68;;;5.80;99.90;;;;;;5013929;28;20096;-65
2022/11/27 01:08:11;;;;;;;17.00;6.03;;;5.70;99.90;;;;;;5014156;28;20073;-63
2022/11/27 01:10:36;;;;;;;15.98;6.10;;;5.70;99.90;;;;;;5014065;28;20042;-64
2022/11/27 01:13:02;;;;;;;17.85;6.25;;;5.70;99.90;;;;;;4999118;28;20038;-65
2022/11/27 01:15:28;;;;;;;16.00;7.10;;;5.70;99.90;;;;;;4995861;28;20046;-64
2022/11/27 01:17:53;;;;;;;21.55;6.35;;;5.70;99.90;;;;;;4994482;28;20038;-64
2022/11/27 01:20:19;;;;;;;22.02;6.20;;;5.70;99.90;;;;;;4995189;28;20378;-64
2022/11/27 01:22:44;;;;;;;17.17;6.35;;;5.60;99.90;;;;;;5011800;28;20394;-64
2022/11/27 01:25:10;;;;;;;17.15;6.93;;;5.60;99.90;;;;;;4995668;28;20479;-64
2022/11/27 01:27:35;;;;;;;14.02;6.20;;;5.50;99.90;;;;;;5014778;28;20671;-63
2022/11/27 01:30:01;;;;;;;14.73;6.07;;;5.40;99.90;;;;;;4999379;28;20386;-63
2022/11/27 01:32:27;;;;;;;13.18;6.72;;;5.50;99.90;;;;;;5026363;28;20158;-63
2022/11/27 01:34:52;;;;;;;14.50;6.50;;;5.50;99.90;;;;;;4994253;28;20050;-64
2022/11/27 01:37:18;;;;;;;16.02;6.53;;;5.40;99.90;;;;;;4994266;28;20038;-65
2022/11/27 01:39:43;;;;;;;16.08;6.07;;;5.50;99.90;;;;;;5011103;28;20049;-63
2022/11/27 01:42:10;;;;;;;22.52;7.90;;;5.40;99.90;;;;;;5013486;28;20500;-64
2022/11/27 01:44:35;;;;;;;16.52;6.35;;;5.40;99.90;;;;;;5013623;28;20065;-65
2022/11/27 01:47:05;;;;;;;19.17;7.00;;;5.30;99.90;;;;;;5012641;28;20050;-64
2022/11/27 01:49:38;;;;;;;24.42;6.82;;;5.40;99.90;;;;;;5014442;28;20030;-64
2022/11/27 01:52:09;;;;;;;20.88;7.57;;;5.40;99.90;;;;;;5013305;28;20108;-65
2022/11/27 01:55:11;;;;;;;18.75;7.07;;;5.40;99.90;;;;;;5011707;28;20397;-64
2022/11/27 01:57:44;;;;;;;13.60;6.68;;;5.30;99.90;;;;;;4975889;28;20808;-64
2022/11/27 02:00:12;;;;;;;19.25;6.30;;;5.30;99.90;;;;;;5014002;28;20052;-64
2022/11/27 02:02:42;;;;;;;17.88;7.32;;;5.20;99.90;;;;;;5011875;28;20077;-64
2022/11/27 02:05:10;;;;;;;17.05;7.10;;;5.20;99.90;;;;;;5013237;28;20045;-63
2022/11/27 02:07:35;;;;;;;22.50;6.50;;;5.20;99.90;;;;;;5010615;28;20481;-64
2022/11/27 02:10:02;;;;;;;18.52;6.70;;;5.10;99.90;;;;;;5010934;28;20057;-64
2022/11/27 02:12:43;;;;;;;17.65;6.45;;;5.10;99.90;;;;;;5011838;28;20046;-64
2022/11/27 02:16:02;;;;;;;16.35;6.32;;;5.10;99.90;;;;;;5011909;28;20053;-63
2022/11/27 02:18:56;;;;;;;22.52;6.65;;;5.10;99.90;;;;;;4971152;28;20057;-64
2022/11/27 02:21:41;;;;;;;18.77;7.45;;;5.10;99.90;;;;;;4975341;28;20097;-64
2022/11/27 02:24:32;;;;;;;18.65;6.50;;;5.00;99.90;;;;;;4991187;28;20054;-63
2022/11/27 02:27:35;;;;;;;17.58;7.38;;;5.10;99.90;;;;;;5013008;28;20050;-64
2022/11/27 02:30:03;;;;;;;14.95;6.50;;;5.10;99.90;;;;;;5020659;28;20045;-64
2022/11/27 02:32:43;;;;;;;19.77;7.10;;;5.00;99.90;;;;;;5010251;28;20523;-63
2022/11/27 02:35:44;;;;;;;18.52;7.00;;;5.00;99.90;;;;;;5011936;28;20034;-63
2022/11/27 02:38:21;;;;;;;14.20;6.30;;;5.10;99.90;;;;;;5013246;28;20038;-63
2022/11/27 02:40:57;;;;;;;16.65;6.22;;;5.10;99.90;;;;;;5012762;28;20046;-64
2022/11/27 02:43:29;;;;;;;17.00;6.80;;;5.10;99.90;;;;;;5012192;28;20094;-64
2022/11/27 02:45:56;;;;;;;17.15;6.50;;;5.10;99.90;;;;;;5013977;28;20038;-63
2022/11/27 02:48:28;;;;;;;15.30;6.38;;;5.10;99.90;;;;;;5011812;28;20437;-64
2022/11/27 02:50:55;;;;;;;17.02;6.53;;;5.20;99.90;;;;;;5013198;28;20029;-64
2022/11/27 02:53:30;;;;;;;17.73;6.57;;;5.10;99.90;;;;;;5011994;28;20576;-65
2022/11/27 02:55:58;;;;;;;15.15;6.60;;;5.10;99.90;;;;;;5000651;28;20125;-64
2022/11/27 02:58:27;;;;;;;19.58;7.35;;;5.20;99.90;;;;;;4994101;28;20085;-64
2022/11/27 03:00:54;;;;;;;12.90;6.18;;;5.10;99.90;;;;;;4993298;28;20046;-64
2022/11/27 03:03:31;;;;;;;13.98;6.10;;;5.10;99.90;;;;;;5011629;28;20440;-64
2022/11/27 03:06:04;;;;;;;16.98;6.30;;;5.10;99.90;;;;;;5013437;28;20046;-63
2022/11/27 03:08:41;;;;;;;20.02;7.35;;;5.10;99.90;;;;;;5012406;28;20045;-64
2022/11/27 03:11:09;;;;;;;18.05;6.15;;;5.10;99.90;;;;;;4994757;28;20723;-64
2022/11/27 03:13:39;;;;;;;15.65;6.72;;;5.10;99.90;;;;;;5012521;28;20088;-63
2022/11/27 03:16:19;;;;;;;21.80;6.87;;;5.10;99.90;;;;;;5011569;28;20037;-65
2022/11/27 03:19:09;;;;;;;13.15;6.00;;;5.10;99.90;;;;;;5013006;28;20117;-63
2022/11/27 03:21:42;;;;;;;15.27;6.63;;;5.20;99.90;;;;;;5011635;28;20046;-64
2022/11/27 03:24:08;;;;;;;16.80;6.18;;;5.20;99.90;;;;;;5010635;28;20072;-64
2022/11/27 03:26:35;;;;;;;17.90;6.53;;;5.20;99.90;;;;;;5012653;28;20041;-64
2022/11/27 03:29:03;;;;;;;15.95;6.60;;;5.20;99.90;;;;;;4997688;28;20042;-65
2022/11/27 03:31:30;;;;;;;14.80;6.43;;;5.20;99.90;;;;;;5023750;28;20050;-63
2022/11/27 03:33:56;;;;;;;16.08;6.07;;;5.10;99.90;;;;;;5023635;28;20133;-64
2022/11/27 03:36:22;;;;;;;16.10;6.28;;;5.20;99.90;;;;;;4991015;28;20472;-64
2022/11/27 03:38:50;;;;;;;13.80;5.80;;;5.20;99.90;;;;;;5010232;28;20033;-64
2022/11/27 03:41:46;;;;;;;16.10;6.43;;;5.20;99.90;;;;;;5011340;28;20109;-67
2022/11/27 03:44:29;;;;;;;15.73;6.00;;;5.10;99.90;;;;;;5011667;28;20533;-63
2022/11/27 03:47:09;;;;;;;15.70;5.47;;;5.10;99.90;;;;;;5004189;28;20046;-64
2022/11/27 03:50:12;;;;;;;17.55;6.38;;;5.20;99.90;;;;;;4991820;28;20026;-64
2022/11/27 03:52:49;;;;;;;15.73;5.68;;;5.20;99.90;;;;;;4995458;28;20065;-64
2022/11/27 03:55:30;;;;;;;16.42;5.18;;;5.20;99.90;;;;;;5010615;28;20694;-64
2022/11/27 03:58:00;;;;;;;17.17;5.60;;;5.10;99.90;;;;;;5009218;28;20049;-64
2022/11/27 04:00:31;;;;;;;16.73;5.43;;;5.10;99.90;;;;;;5011271;28;20437;-64
2022/11/27 04:02:57;;;;;;;17.90;5.60;;;5.10;99.90;;;;;;5024823;28;20100;-64
2022/11/27 04:05:23;;;;;;;13.80;5.22;;;5.10;99.90;;;;;;5010244;28;20034;-66
2022/11/27 04:07:48;;;;;;;15.65;5.07;;;5.10;99.90;;;;;;5010649;28;20036;-63
2022/11/27 04:10:14;;;;;;;14.55;5.20;;;5.10;99.90;;;;;;5009413;28;20481;-65
2022/11/27 04:12:39;;;;;;;14.15;5.75;;;5.10;99.90;;;;;;5010880;28;20677;-65
2022/11/27 04:15:06;;;;;;;15.60;5.35;;;5.10;99.90;;;;;;5009280;28;20049;-64
2022/11/27 04:17:32;;;;;;;15.70;5.25;;;5.00;99.90;;;;;;5010402;28;20038;-64
2022/11/27 04:19:57;;;;;;;14.57;5.68;;;5.10;99.90;;;;;;5011263;28;20049;-64
2022/11/27 04:22:23;;;;;;;12.02;4.97;;;5.10;99.90;;;;;;5009385;28;20041;-64
2022/11/27 04:24:49;;;;;;;12.68;5.35;;;5.10;99.90;;;;;;5008228;28;20084;-64
2022/11/27 04:27:15;;;;;;;13.65;5.20;;;5.10;99.90;;;;;;5011257;28;20548;-64
2022/11/27 04:29:41;;;;;;;17.00;5.53;;;5.10;99.90;;;;;;5010322;28;20038;-64
2022/11/27 04:32:06;;;;;;;13.32;5.10;;;5.00;99.90;;;;;;5010513;28;20034;-64
2022/11/27 04:34:32;;;;;;;16.45;5.38;;;5.00;99.90;;;;;;5010127;28;20103;-64
2022/11/27 04:36:58;;;;;;;15.02;5.20;;;5.00;99.90;;;;;;5009166;28;20386;-64
2022/11/27 04:39:23;;;;;;;16.73;4.75;;;5.00;99.90;;;;;;5010147;28;20466;-63
2022/11/27 04:41:49;;;;;;;18.38;5.38;;;5.00;99.90;;;;;;5009558;28;20034;-64
2022/11/27 04:44:15;;;;;;;9.77;4.10;;;5.00;99.90;;;;;;5009217;28;20180;-63
2022/11/27 04:46:41;;;;;;;16.52;5.22;;;5.00;99.90;;;;;;5009025;28;20085;-64
2022/11/27 04:49:08;;;;;;;16.77;5.07;;;5.00;99.90;;;;;;5010635;28;20030;-64
2022/11/27 04:51:33;;;;;;;15.00;5.13;;;5.00;99.90;;;;;;5009137;28;20466;-63
2022/11/27 04:53:59;;;;;;;14.68;5.32;;;5.00;99.90;;;;;;5009249;28;20045;-64
2022/11/27 04:56:24;;;;;;;10.93;4.03;;;5.00;99.90;;;;;;5008495;28;20131;-66
2022/11/27 04:58:50;;;;;;;14.38;6.65;;;5.00;99.90;;;;;;5010655;28;20038;-63
2022/11/27 05:01:15;;;;;;;10.80;4.95;;;5.00;99.90;;;;;;5010531;28;20038;-64
2022/11/27 05:03:41;;;;;;;15.50;5.05;;;5.00;99.90;;;;;;5007345;28;20030;-64
2022/11/27 05:06:07;;;;;;;14.85;4.72;;;5.10;99.90;;;;;;5009976;28;20423;-64
2022/11/27 05:08:33;;;;;;;12.65;4.57;;;5.00;99.90;;;;;;5010348;28;20505;-65
2022/11/27 05:11:17;;;;;;;12.93;4.82;;;5.00;99.90;;;;;;5008438;28;20121;-64
2022/11/27 05:13:43;;;;;;;11.35;4.40;;;5.10;99.90;;;;;;5010434;28;20123;-63
2022/11/27 05:16:09;;;;;;;13.57;4.57;;;5.00;99.90;;;;;;5009574;28;20073;-64
2022/11/27 05:18:35;;;;;;;12.63;4.25;;;5.10;99.90;;;;;;5009608;28;20038;-63
2022/11/27 05:21:09;;;;;;;11.93;4.85;;;5.00;99.90;;;;;;5010705;28;20052;-64
2022/11/27 05:23:35;;;;;;;12.57;4.13;;;5.10;99.90;;;;;;5009064;28;20046;-64
2022/11/27 05:26:02;;;;;;;11.63;4.22;;;5.00;99.90;;;;;;5009233;28;20056;-64
2022/11/27 05:28:27;;;;;;;16.70;4.40;;;5.00;99.90;;;;;;4992587;28;20501;-64
2022/11/27 05:30:53;;;;;;;13.68;4.57;;;5.00;99.90;;;;;;5006741;28;20046;-63
2022/11/27 05:33:19;;;;;;;12.80;4.28;;;5.00;99.90;;;;;;4990559;28;20042;-63
2022/11/27 05:35:45;;;;;;;12.18;4.72;;;5.00;99.90;;;;;;5009612;28;20496;-64
2022/11/27 05:38:11;;;;;;;12.18;4.68;;;5.00;99.90;;;;;;5010819;28;20038;-63
2022/11/27 05:40:38;;;;;;;10.15;4.63;;;5.00;99.90;;;;;;5009823;28;20050;-63
2022/11/27 05:43:03;;;;;;;9.20;3.95;;;4.90;99.90;;;;;;5010145;28;20048;-64
2022/11/27 05:45:29;;;;;;;12.52;3.80;;;4.90;99.90;;;;;;4992960;28;20125;-64
2022/11/27 05:47:55;;;;;;;14.18;4.40;;;4.90;99.90;;;;;;4991012;28;20121;-64
2022/11/27 05:50:20;;;;;;;10.30;4.13;;;4.90;99.90;;;;;;4995441;28;20451;-64
2022/11/27 05:52:46;;;;;;;14.55;4.57;;;4.90;99.90;;;;;;5001412;28;20030;-64
2022/11/27 05:55:11;;;;;;;9.63;4.60;;;4.90;99.90;;;;;;5013746;28;20045;-64
2022/11/27 05:57:37;;;;;;;12.10;4.20;;;4.90;99.90;;;;;;5013574;28;20138;-64
2022/11/27 06:00:05;;;;;;;11.25;4.00;;;4.90;99.90;;;;;;5013622;28;20099;-64
2022/11/27 06:02:31;;;;;;;9.75;4.15;;;4.90;99.90;;;;;;4996140;28;20406;-64
2022/11/27 06:04:56;;;;;;;12.15;5.00;;;4.80;99.90;;;;;;5004363;28;20054;-64
2022/11/27 06:07:22;;;;;;;11.82;4.43;;;4.80;99.90;;;;;;5013209;28;20034;-64
2022/11/27 06:09:48;;;;;;;11.23;4.20;;;4.80;99.90;;;;;;5013260;28;20042;-64
2022/11/27 06:12:13;;;;;;;12.30;4.88;;;4.90;99.90;;;;;;5011776;28;20042;-64
2022/11/27 06:14:39;;;;;;;10.55;4.10;;;4.80;99.90;;;;;;5014339;28;20045;-64
2022/11/27 06:17:04;;;;;;;7.57;4.32;;;4.80;99.90;;;;;;5012318;28;20033;-64
2022/11/27 06:19:30;;;;;;;15.57;5.20;;;4.80;99.90;;;;;;4996233;28;20384;-64
2022/11/27 06:21:55;;;;;;;10.95;4.10;;;4.90;99.90;;;;;;4991795;28;20755;-64
2022/11/27 06:24:21;;;;;;;11.00;4.43;;;4.90;99.90;;;;;;4997195;28;20512;-63
2022/11/27 06:26:47;;;;;;;7.95;3.78;;;4.80;99.90;;;;;;5009725;28;20029;-63
2022/11/27 06:29:12;;;;;;;12.82;3.85;;;4.80;99.90;;;;;;5010600;28;20067;-63
2022/11/27 06:31:39;;;;;;;11.85;4.55;;;4.80;99.90;;;;;;5011243;28;20141;-64
2022/11/27 06:34:05;;;;;;;12.70;4.15;;;4.90;99.90;;;;;;4999269;28;20038;-63
2022/11/27 06:36:35;;;;;;;10.95;4.70;;;4.90;99.90;;;;;;5009746;28;20508;-64
2022/11/27 06:39:04;;;;;;;13.30;4.82;;;4.90;99.90;;;;;;4994618;28;20121;-63
2022/11/27 06:41:30;;;;;;;11.82;4.70;;;4.90;99.90;;;;;;5002108;28;20107;-63
2022/11/27 06:43:58;;;;;;;10.05;4.18;;;4.90;99.90;;;;;;5012538;28;20092;-64
2022/11/27 06:46:24;;;;;;;10.23;4.40;;;4.90;99.90;;;;;;5012246;28;20115;-65
2022/11/27 06:48:52;;;;;;;11.13;4.80;;;4.90;99.90;;;;;;5012201;28;20050;-64
2022/11/27 06:51:20;;;;;;;11.73;4.57;;;4.90;99.90;;;;;;5013190;28;20401;-64
2022/11/27 06:53:46;;;;;;;12.48;5.38;;;4.90;99.90;;;;;;5008554;28;20052;-64
2022/11/27 06:56:14;;;;;;;10.40;4.55;;;4.90;99.90;;;;;;5012971;28;20124;-65
2022/11/27 06:58:40;;;;;;;10.43;4.43;;;4.90;99.90;;;;;;5011710;28;20034;-63
2022/11/27 07:01:09;;;;;;;13.63;4.10;;;4.90;99.90;;;;;;5009393;28;20405;-64
2022/11/27 07:03:35;;;;;;;10.73;4.47;;;4.90;99.90;;;;;;5009512;28;20069;-64
2022/11/27 07:06:04;;;;;;;13.48;4.35;;;4.90;99.90;;;;;;5027336;28;20038;-63
2022/11/27 07:08:30;;;;;;;9.60;4.60;;;4.90;99.90;;;;;;5027803;28;20436;-64
2022/11/27 07:11:07;;;;;;;13.32;4.47;;;4.90;99.90;;;;;;5011898;28;20109;-64
2022/11/27 07:13:32;;;;;;;15.93;4.53;;;4.90;99.90;;;;;;5010934;28;20037;-64
2022/11/27 07:16:02;;;;;;;13.70;5.07;;;4.90;99.90;;;;;;5013191;28;20397;-63
2022/11/27 07:18:29;;;;;;;11.93;5.30;;;4.90;99.90;;;;;;5016668;28;20033;-64
2022/11/27 07:20:54;;;;;;;10.30;4.60;;;5.00;99.90;;;;;;5019854;28;20064;-63
2022/11/27 07:23:21;;;;;;;10.20;4.20;;;4.90;99.90;;;;;;5001521;28;20053;-63
2022/11/27 07:25:46;;;;;;;13.85;4.97;;;5.00;99.90;;;;;;5007190;28;20041;-63
2022/11/27 07:28:12;;;;;;;11.90;4.88;;;5.00;99.90;;;;;;5012142;28;20485;-63
2022/11/27 07:30:37;;;;;;;11.73;4.70;;;5.00;99.90;;;;;;5015396;28;20481;-63
2022/11/27 07:33:03;;;;;;;10.85;4.35;;;5.00;99.90;;;;;;5019682;28;20037;-64
2022/11/27 07:35:28;;;;;;;10.23;3.97;;;5.00;99.90;;;;;;5020047;28;20120;-63
2022/11/27 07:37:54;;;;;;;14.18;5.35;;;5.00;99.90;;;;;;5010810;28;20084;-64
2022/11/27 07:40:20;;;;;;;12.70;4.80;;;5.00;99.90;;;;;;4994776;28;20696;-63
2022/11/27 07:42:45;;;;;;;9.38;4.63;;;5.00;99.90;;;;;;5010417;28;20037;-64
2022/11/27 07:45:11;;;;;;;11.88;4.78;;;5.00;99.90;;;;;;5010664;28;20064;-64
2022/11/27 07:47:37;;;;;;;7.97;4.75;;;5.10;99.90;;;;;;5009153;28;20050;-64
2022/11/27 07:50:04;;;;;;;10.57;4.00;;;5.10;99.90;;;;;;5011089;28;20057;-64
2022/11/27 07:52:30;;;;;;;10.13;4.68;;;5.10;99.90;;;;;;5011345;28;20080;-63
2022/11/27 07:54:55;;;;;;;10.07;4.57;;;5.10;99.90;;;;;;5008907;28;20073;-64
2022/11/27 07:57:21;;;;;;;12.02;4.72;;;5.10;99.90;;;;;;5010266;28;20060;-64
2022/11/27 07:59:46;;;;;;;9.13;4.07;;;5.10;99.90;;;;;;5009020;28;20038;-64
2022/11/27 08:02:12;;;;;;;8.48;4.20;;;5.10;99.90;;;;;;5009991;28;20037;-64
2022/11/27 08:04:38;;;;;;;12.57;4.75;;;5.10;99.90;;;;;;5006758;28;20077;-64
2022/11/27 08:07:04;;;;;;;14.27;5.45;;;5.10;99.90;;;;;;5021152;28;20090;-64
2022/11/27 08:09:29;;;;;;;16.75;5.05;;;5.10;99.90;;;;;;5010876;28;20080;-64
2022/11/27 08:11:55;;;;;;;9.45;5.15;;;5.10;99.90;;;;;;5009366;28;20037;-64
2022/11/27 08:14:20;;;;;;;10.93;4.40;;;5.10;99.90;;;;;;5008053;28;20555;-65
2022/11/27 08:16:46;;;;;;;9.98;4.68;;;5.20;99.90;;;;;;5021875;28;20542;-64
2022/11/27 08:19:12;;;;;;;11.40;5.22;;;5.20;99.90;;;;;;5016594;28;20050;-64
2022/11/27 08:21:38;;;;;;;12.32;4.82;;;5.20;99.90;;;;;;5007858;28;20477;-65
2022/11/27 08:24:03;;;;;;;13.13;5.10;;;5.20;99.90;;;;;;5007644;28;20160;-65
2022/11/27 08:26:29;;;;;;;13.55;4.72;;;5.30;99.90;;;;;;5009823;28;20492;-64
2022/11/27 08:28:56;;;;;;;15.38;5.78;;;5.30;99.90;;;;;;5008802;28;20041;-64
2022/11/27 08:31:22;;;;;;;9.98;4.35;;;5.30;99.90;;;;;;4995332;28;20601;-65
2022/11/27 08:33:48;;;;;;;14.15;4.55;;;5.40;99.90;;;;;;5004983;28;20437;-65
2022/11/27 08:36:14;;;;;;;13.93;4.80;;;5.40;99.90;;;;;;5006750;28;20083;-65
2022/11/27 08:38:40;;;;;;;10.90;4.63;;;5.40;99.90;;;;;;5011037;28;20716;-64
2022/11/27 08:41:07;;;;;;;17.42;5.40;;;5.40;99.90;;;;;;5007225;28;20077;-64
2022/11/27 08:43:33;;;;;;;11.60;5.57;;;5.50;99.90;;;;;;5007799;28;20057;-64
2022/11/27 08:45:58;;;;;;;12.60;5.18;;;5.50;99.90;;;;;;5008927;28;20494;-65
2022/11/27 08:48:25;;;;;;;6.63;4.75;;;5.50;99.90;;;;;;5009031;28;20084;-64
2022/11/27 08:50:52;;;;;;;9.15;4.57;;;5.50;99.90;;;;;;5010638;28;20073;-65
2022/11/27 08:53:18;;;;;;;11.75;5.07;;;5.50;99.90;;;;;;5016454;28;20046;-65
2022/11/27 08:55:44;;;;;;;14.15;5.78;;;5.60;99.90;;;;;;5012169;28;20041;-64
2022/11/27 08:58:10;;;;;;;11.35;4.70;;;5.60;99.90;;;;;;5009575;28;20049;-64
2022/11/27 09:00:37;;;;;;;9.50;4.70;;;5.60;99.90;;;;;;5007595;28;20521;-64
2022/11/27 09:03:03;;;;;;;12.52;5.03;;;5.60;99.90;;;;;;4977079;28;20046;-64
2022/11/27 09:05:29;;;;;;;12.05;5.53;;;5.60;99.90;;;;;;5010361;28;20497;-65
2022/11/27 09:07:55;;;;;;;11.02;5.32;;;5.60;99.90;;;;;;5008789;28;20035;-65
2022/11/27 09:10:21;;;;;;;9.85;5.00;;;5.60;99.90;;;;;;5008766;28;20065;-64
2022/11/27 09:12:50;;;;;;;10.35;5.38;;;5.60;99.90;;;;;;5008340;28;20046;-64
2022/11/27 09:15:16;;;;;;;10.75;5.28;;;5.60;99.90;;;;;;5010809;28;20041;-64
2022/11/27 09:17:42;;;;;;;10.75;5.32;;;5.60;99.90;;;;;;5007018;28;20042;-65
2022/11/27 09:20:09;;;;;;;13.43;5.85;;;5.60;99.90;;;;;;5009410;28;20123;-64
2022/11/27 09:22:35;;;;;;;11.32;5.30;;;5.60;99.90;;;;;;5009412;28;20104;-64
2022/11/27 09:25:01;;;;;;;18.20;5.07;;;5.60;99.90;;;;;;5013540;28;20045;-65
2022/11/27 09:27:27;;;;;;;13.43;4.80;;;5.60;99.90;;;;;;5013927;28;20033;-65
2022/11/27 09:29:52;;;;;;;11.70;4.80;;;5.60;99.90;;;;;;5011645;28;20026;-65
2022/11/27 09:32:18;;;;;;;10.55;5.82;;;5.60;99.90;;;;;;5013024;28;20133;-66
2022/11/27 09:34:44;;;;;;;8.93;5.18;;;5.60;99.90;;;;;;5012961;28;20042;-65
2022/11/27 09:37:10;;;;;;;12.93;5.72;;;5.60;99.90;;;;;;5009805;28;20070;-65
2022/11/27 09:39:36;;;;;;;11.93;5.40;;;5.70;99.90;;;;;;5013321;28;20040;-65
2022/11/27 09:42:05;;;;;;;12.05;5.68;;;5.70;99.90;;;;;;5011236;28;20042;-65
2022/11/27 09:44:33;;;;;;;12.13;5.22;;;5.60;99.90;;;;;;5013401;28;20145;-64
2022/11/27 09:47:22;;;;;;;12.57;5.30;;;5.60;99.90;;;;;;5016897;28;20081;-64
2022/11/27 09:50:01;;;;;;;13.43;5.20;;;5.60;99.90;;;;;;5010521;28;20076;-65
2022/11/27 09:52:48;;;;;;;17.02;5.93;;;5.50;99.90;;;;;;5011052;28;20041;-65
2022/11/27 09:55:49;;;;;;;13.65;5.13;;;5.40;99.90;;;;;;4994148;28;20038;-65
2022/11/27 09:58:16;;;;;;;;;;;5.40;99.90;;;;;;4996335;28;20084;-66
2022/11/27 10:00:44;;;;;;;17.05;5.22;;;5.40;99.90;;;;;;5012858;28;19918;-66
2022/11/27 10:03:20;;;;;;;14.32;5.93;;;5.30;99.90;;;;;;5004837;28;20046;-66
2022/11/27 10:06:14;;;;;;;14.57;5.57;;;5.30;99.90;;;;;;5012564;28;20076;-66
2022/11/27 10:09:21;;;;;;;15.95;5.93;;;5.30;99.90;;;;;;5007737;28;20057;-66
2022/11/27 10:12:00;;;;;;;13.90;6.13;;;5.20;99.90;;;;;;4990698;28;20030;-66
2022/11/27 10:14:34;;;;;;;14.48;7.10;;;5.20;99.90;;;;;;5004798;28;20080;-65
2022/11/27 10:17:25;;;;;;;13.68;5.60;;;5.10;99.90;;;;;;5013237;28;20717;-66
2022/11/27 10:20:11;;;;;;;12.80;6.63;;;5.10;99.90;;;;;;4994053;28;20041;-65
2022/11/27 10:22:44;;;;;;;11.88;5.90;;;5.20;99.90;;;;;;5008419;28;20071;-66
2022/11/27 10:25:16;;;;;;;14.38;6.38;;;5.10;99.90;;;;;;5011182;28;20050;-66
2022/11/27 10:28:13;;;;;;;17.08;6.38;;;5.10;99.90;;;;;;5012009;28;20100;-67
2022/11/27 10:30:51;;;;;;;16.67;6.47;;;5.10;99.90;;;;;;4997963;28;20049;-66
2022/11/27 10:33:30;;;;;;;16.65;6.47;;;5.10;99.90;;;;;;5012557;28;20053;-66
2022/11/27 10:35:57;;;;;;;13.70;6.45;;;5.20;99.90;;;;;;4991992;28;20100;-66
2022/11/27 10:38:26;;;;;;;14.65;6.57;;;5.20;99.90;;;;;;4993906;28;20042;-66
2022/11/27 10:41:07;;;;;;;16.95;7.68;;;5.20;99.90;;;;;;5007281;28;20046;-66
2022/11/27 10:43:34;;;;;;;16.30;7.00;;;5.20;99.90;;;;;;5006367;28;20072;-66
2022/11/27 10:46:30;;;;;;;13.43;6.10;;;5.20;99.90;;;;;;5012889;28;20050;-68
2022/11/27 10:48:57;;;;;;;17.30;6.60;;;5.20;99.90;;;;;;5009076;28;20038;-66
2022/11/27 10:51:33;;;;;;;19.13;7.40;;;5.20;99.90;;;;;;5008721;28;20038;-67
2022/11/27 10:54:02;;;;;;;14.65;6.93;;;5.20;99.90;;;;;;5012187;28;20072;-67
2022/11/27 10:56:51;;;;;;;14.97;7.47;;;5.20;99.90;;;;;;5008475;28;20068;-68
2022/11/27 10:59:26;;;;;;;16.65;7.60;;;5.20;99.90;;;;;;5014075;28;20041;-67
2022/11/27 11:01:52;;;;;;;14.13;5.30;;;5.10;99.90;;;;;;5003169;28;20138;-67
2022/11/27 11:04:25;;;;;;;15.70;7.47;;;5.10;99.90;;;;;;5001228;28;20543;-66
2022/11/27 11:06:51;;;;;;;16.42;7.53;;;5.10;99.90;;;;;;5007901;28;20694;-66
2022/11/27 11:09:27;;;;;;;17.52;7.47;;;5.10;99.90;;;;;;5013105;28;20034;-67
2022/11/27 11:11:53;;;;;;;16.85;7.53;;;5.10;99.90;;;;;;5010744;28;20050;-67
2022/11/27 11:14:24;;;;;;;16.65;7.32;;;5.10;99.90;;;;;;5012854;28;20096;-67
2022/11/27 11:16:51;;;;;;;16.48;7.25;;;5.10;99.90;;;;;;5020308;28;20066;-67
2022/11/27 11:19:28;;;;;;;25.85;7.57;;;5.10;99.90;;;;;;5011965;28;20752;-67
2022/11/27 11:21:54;;;;;;;18.30;7.25;;;5.10;99.90;;;;;;5009165;28;20042;-68
2022/11/27 11:24:27;;;;;;;20.75;7.65;;;5.10;99.90;;;;;;5041458;28;20042;-67
2022/11/27 11:26:57;;;;;;;15.43;7.50;;;5.10;99.90;;;;;;5010167;28;20370;-67
2022/11/27 11:29:38;;;;;;;19.85;8.25;;;5.10;99.90;;;;;;5004721;28;20620;-67
2022/11/27 11:32:08;;;;;;;;;;;5.10;99.90;;;;;;5007983;28;20042;-68
2022/11/27 11:34:39;;;;;;;16.45;7.70;;;5.10;99.90;;;;;;5012596;28;19982;-67
2022/11/27 11:37:34;;;;;;;16.65;7.43;;;5.10;99.90;;;;;;4993866;28;20122;-67
2022/11/27 11:40:05;;;;;;;18.52;8.43;;;5.10;99.90;;;;;;5009439;28;20489;-67
2022/11/27 11:42:33;;;;;;;21.38;7.60;;;5.10;99.90;;;;;;5007706;28;20045;-67
2022/11/27 11:45:10;;;;;;;19.52;7.40;;;5.10;99.90;;;;;;5009062;28;20064;-67
2022/11/27 11:47:46;;;;;;;17.40;7.93;;;5.10;99.90;;;;;;5008345;28;20127;-67
2022/11/27 11:50:40;;;;;;;14.45;7.22;;;5.10;99.90;;;;;;5010503;28;20065;-67
2022/11/27 11:53:34;;;;;;;19.25;9.18;;;5.10;99.90;;;;;;5008435;28;20049;-67
2022/11/27 11:56:18;;;;;;;18.95;8.50;;;5.20;99.90;;;;;;5011063;28;20052;-66
2022/11/27 11:58:57;;;;;;;17.70;7.82;;;5.20;99.90;;;;;;5001912;28;20041;-66
2022/11/27 12:01:38;;;;;;;18.45;8.05;;;5.20;99.90;;;;;;5009024;28;20358;-67
2022/11/27 12:04:28;;;;;;;19.55;8.50;;;5.20;99.90;;;;;;5011104;28;20045;-67
2022/11/27 12:07:08;;;;;;;18.38;8.52;;;5.20;99.90;;;;;;5009103;28;20428;-67
2022/11/27 12:09:56;;;;;;;17.20;7.88;;;5.30;99.90;;;;;;5002573;28;20361;-67
2022/11/27 12:12:45;;;;;;;18.55;8.45;;;5.30;99.90;;;;;;5010709;28;20044;-66
2022/11/27 12:15:22;;;;;;;19.13;8.10;;;5.30;99.90;;;;;;5007175;28;20129;-67
2022/11/27 12:17:55;;;;;;;19.48;8.43;;;5.30;99.90;;;;;;5017005;28;20037;-66
2022/11/27 12:20:39;;;;;;;17.42;8.75;;;5.40;99.90;;;;;;5010141;28;20602;-67
2022/11/27 12:23:33;;;;;;;19.88;8.82;;;5.40;99.90;;;;;;5007939;28;20081;-67
2022/11/27 12:26:35;;;;;;;17.23;7.88;;;5.40;99.90;;;;;;5008107;28;20519;-66
2022/11/27 12:29:10;;;;;;;18.63;8.43;;;5.50;99.90;;;;;;4999464;28;20046;-67
2022/11/27 12:31:57;;;;;;;16.58;7.47;;;5.50;99.90;;;;;;5010275;28;20038;-67
2022/11/27 12:34:37;;;;;;;18.30;9.60;;;5.50;99.90;;;;;;5010997;28;20409;-67
2022/11/27 12:37:32;;;;;;;18.48;8.30;;;5.60;99.90;;;;;;5006327;28;20042;-67
2022/11/27 12:40:47;;;;;;;18.90;8.05;;;5.60;99.90;;;;;;5008135;28;20077;-67
2022/11/27 12:43:21;;;;;;;17.63;7.93;;;5.60;99.90;;;;;;5005260;28;20054;-68
2022/11/27 12:45:57;;;;;;;21.02;8.35;;;5.50;99.90;;;;;;5008372;28;20057;-66
2022/11/27 12:48:48;;;;;;;16.95;8.18;;;5.50;99.90;;;;;;5007961;28;20477;-66
2022/11/27 12:51:23;;;;;;;19.23;8.65;;;5.50;99.90;;;;;;5007887;28;20040;-66
2022/11/27 12:53:54;;;;;;;18.77;9.00;;;5.50;99.90;;;;;;5008933;28;20661;-67
2022/11/27 12:56:39;;;;;;;16.67;7.53;;;5.50;99.90;;;;;;5009556;28;20073;-66
2022/11/27 12:59:32;;;;;;;20.38;8.25;;;5.50;99.90;;;;;;5013604;28;20133;-66
2022/11/27 13:02:17;;;;;;;17.05;7.95;;;5.60;99.90;;;;;;5012166;28;20065;-67
2022/11/27 13:04:53;;;;;;;16.55;8.13;;;5.60;99.90;;;;;;5013696;28;20125;-66
2022/11/27 13:07:26;;;;;;;15.35;8.10;;;5.50;99.90;;;;;;5011936;28;20041;-67
2022/11/27 13:10:26;;;;;;;17.13;8.02;;;5.50;99.90;;;;;;5014057;28;20042;-67